sensor_id;sensor_type;location;lat;lon;timestamp;pressure;altitude;pressure_sealevel;temperature
56286;BMP180;42191;47.562;9.686;2023-03-17T00:01:10;96595.00;;;9.10
56286;BMP180;42191;47.562;9.686;2023-03-17T00:03:41;96589.00;;;9.10
56286;BMP180;42191;47.562;9.686;2023-03-17T00:06:18;96583.00;;;9.10
56286;BMP180;42191;47.562;9.686;2023-03-17T00:08:46;96593.00;;;9.10
56286;BMP180;42191;47.562;9.686;2023-03-17T00:11:14;96579.00;;;9.10
56286;BMP180;42191;47.562;9.686;2023-03-17T00:13:41;96585.00;;;9.10
56286;BMP180;42191;47.562;9.686;2023-03-17T00:16:16;96581.00;;;9.10
56286;BMP180;42191;47.562;9.686;2023-03-17T00:18:43;96567.00;;;9.10
56286;BMP180;42191;47.562;9.686;2023-03-17T00:21:13;96577.00;;;9.00
56286;BMP180;42191;47.562;9.686;2023-03-17T00:23:40;96573.00;;;9.00
56286;BMP180;42191;47.562;9.686;2023-03-17T00:26:09;96578.00;;;9.00
56286;BMP180;42191;47.562;9.686;2023-03-17T00:28:36;96579.00;;;9.00
56286;BMP180;42191;47.562;9.686;2023-03-17T00:31:11;96567.00;;;9.00
56286;BMP180;42191;47.562;9.686;2023-03-17T00:33:38;96569.00;;;9.00
56286;BMP180;42191;47.562;9.686;2023-03-17T00:36:04;96567.00;;;8.90
56286;BMP180;42191;47.562;9.686;2023-03-17T00:38:32;96564.00;;;8.90
56286;BMP180;42191;47.562;9.686;2023-03-17T00:40:58;96569.00;;;8.90
56286;BMP180;42191;47.562;9.686;2023-03-17T00:43:24;96578.00;;;8.80
56286;BMP180;42191;47.562;9.686;2023-03-17T00:45:51;96566.00;;;8.80
56286;BMP180;42191;47.562;9.686;2023-03-17T00:48:19;96568.00;;;8.80
56286;BMP180;42191;47.562;9.686;2023-03-17T00:50:46;96567.00;;;8.70
56286;BMP180;42191;47.562;9.686;2023-03-17T00:53:16;96567.00;;;8.70
56286;BMP180;42191;47.562;9.686;2023-03-17T00:55:44;96567.00;;;8.70
56286;BMP180;42191;47.562;9.686;2023-03-17T00:58:23;96564.00;;;8.70
56286;BMP180;42191;47.562;9.686;2023-03-17T01:00:50;96555.00;;;8.70
56286;BMP180;42191;47.562;9.686;2023-03-17T01:03:17;96552.00;;;8.60
56286;BMP180;42191;47.562;9.686;2023-03-17T01:05:43;96551.00;;;8.60
56286;BMP180;42191;47.562;9.686;2023-03-17T01:08:09;96551.00;;;8.60
56286;BMP180;42191;47.562;9.686;2023-03-17T01:10:35;96540.00;;;8.60
56286;BMP180;42191;47.562;9.686;2023-03-17T01:13:02;96532.00;;;8.60
56286;BMP180;42191;47.562;9.686;2023-03-17T01:15:30;96531.00;;;8.60
56286;BMP180;42191;47.562;9.686;2023-03-17T01:17:58;96539.00;;;8.60
56286;BMP180;42191;47.562;9.686;2023-03-17T01:20:27;96531.00;;;8.60
56286;BMP180;42191;47.562;9.686;2023-03-17T01:22:54;96531.00;;;8.60
56286;BMP180;42191;47.562;9.686;2023-03-17T01:25:21;96530.00;;;8.60
56286;BMP180;42191;47.562;9.686;2023-03-17T01:27:48;96525.00;;;8.60
56286;BMP180;42191;47.562;9.686;2023-03-17T01:30:30;96526.00;;;8.60
56286;BMP180;42191;47.562;9.686;2023-03-17T01:32:58;96529.00;;;8.60
56286;BMP180;42191;47.562;9.686;2023-03-17T01:35:26;96535.00;;;8.60
56286;BMP180;42191;47.562;9.686;2023-03-17T01:37:54;96534.00;;;8.50
56286;BMP180;42191;47.562;9.686;2023-03-17T01:40:31;96524.00;;;8.50
56286;BMP180;42191;47.562;9.686;2023-03-17T01:43:20;96525.00;;;8.50
56286;BMP180;42191;47.562;9.686;2023-03-17T01:48:44;96530.00;;;8.40
56286;BMP180;42191;47.562;9.686;2023-03-17T01:51:18;96516.00;;;8.40
56286;BMP180;42191;47.562;9.686;2023-03-17T01:53:47;96515.00;;;8.40
56286;BMP180;42191;47.562;9.686;2023-03-17T01:56:15;96506.00;;;8.40
56286;BMP180;42191;47.562;9.686;2023-03-17T01:58:42;96511.00;;;8.40
56286;BMP180;42191;47.562;9.686;2023-03-17T02:01:11;96504.00;;;8.30
56286;BMP180;42191;47.562;9.686;2023-03-17T02:03:39;96502.00;;;8.30
56286;BMP180;42191;47.562;9.686;2023-03-17T02:06:07;96497.00;;;8.20
56286;BMP180;42191;47.562;9.686;2023-03-17T02:08:34;96490.00;;;8.20
56286;BMP180;42191;47.562;9.686;2023-03-17T02:11:00;96491.00;;;8.20
56286;BMP180;42191;47.562;9.686;2023-03-17T02:13:30;96492.00;;;8.10
56286;BMP180;42191;47.562;9.686;2023-03-17T02:15:56;96499.00;;;8.10
56286;BMP180;42191;47.562;9.686;2023-03-17T02:18:23;96490.00;;;8.10
56286;BMP180;42191;47.562;9.686;2023-03-17T02:23:20;96505.00;;;8.10
56286;BMP180;42191;47.562;9.686;2023-03-17T02:25:50;96509.00;;;8.10
56286;BMP180;42191;47.562;9.686;2023-03-17T02:28:28;96512.00;;;8.10
56286;BMP180;42191;47.562;9.686;2023-03-17T02:30:55;96507.00;;;8.00
56286;BMP180;42191;47.562;9.686;2023-03-17T02:33:22;96507.00;;;8.10
56286;BMP180;42191;47.562;9.686;2023-03-17T02:35:48;96510.00;;;8.00
56286;BMP180;42191;47.562;9.686;2023-03-17T02:38:14;96514.00;;;8.10
56286;BMP180;42191;47.562;9.686;2023-03-17T02:40:40;96511.00;;;8.10
56286;BMP180;42191;47.562;9.686;2023-03-17T02:43:07;96499.00;;;8.10
56286;BMP180;42191;47.562;9.686;2023-03-17T02:45:33;96504.00;;;8.10
56286;BMP180;42191;47.562;9.686;2023-03-17T02:48:00;96496.00;;;8.10
56286;BMP180;42191;47.562;9.686;2023-03-17T02:50:27;96503.00;;;8.10
56286;BMP180;42191;47.562;9.686;2023-03-17T02:52:54;96510.00;;;8.10
56286;BMP180;42191;47.562;9.686;2023-03-17T02:55:21;96504.00;;;8.10
56286;BMP180;42191;47.562;9.686;2023-03-17T02:57:47;96503.00;;;8.10
56286;BMP180;42191;47.562;9.686;2023-03-17T03:00:14;96497.00;;;8.10
56286;BMP180;42191;47.562;9.686;2023-03-17T03:02:40;96506.00;;;8.10
56286;BMP180;42191;47.562;9.686;2023-03-17T03:05:07;96498.00;;;8.10
56286;BMP180;42191;47.562;9.686;2023-03-17T03:07:34;96505.00;;;8.10
56286;BMP180;42191;47.562;9.686;2023-03-17T03:10:01;96501.00;;;8.10
56286;BMP180;42191;47.562;9.686;2023-03-17T03:12:27;96517.00;;;8.00
56286;BMP180;42191;47.562;9.686;2023-03-17T03:14:53;96523.00;;;8.00
56286;BMP180;42191;47.562;9.686;2023-03-17T03:17:20;96522.00;;;8.00
56286;BMP180;42191;47.562;9.686;2023-03-17T03:19:46;96517.00;;;8.00
56286;BMP180;42191;47.562;9.686;2023-03-17T03:22:14;96508.00;;;8.00
56286;BMP180;42191;47.562;9.686;2023-03-17T03:24:40;96510.00;;;8.00
56286;BMP180;42191;47.562;9.686;2023-03-17T03:27:06;96505.00;;;7.90
56286;BMP180;42191;47.562;9.686;2023-03-17T03:29:33;96510.00;;;7.90
56286;BMP180;42191;47.562;9.686;2023-03-17T03:31:59;96522.00;;;7.80
56286;BMP180;42191;47.562;9.686;2023-03-17T03:34:25;96529.00;;;7.80
56286;BMP180;42191;47.562;9.686;2023-03-17T03:36:52;96525.00;;;7.80
56286;BMP180;42191;47.562;9.686;2023-03-17T03:39:18;96520.00;;;7.70
56286;BMP180;42191;47.562;9.686;2023-03-17T03:41:44;96525.00;;;7.70
56286;BMP180;42191;47.562;9.686;2023-03-17T03:44:11;96533.00;;;7.70
56286;BMP180;42191;47.562;9.686;2023-03-17T03:46:37;96531.00;;;7.70
56286;BMP180;42191;47.562;9.686;2023-03-17T03:49:03;96521.00;;;7.60
56286;BMP180;42191;47.562;9.686;2023-03-17T03:51:29;96534.00;;;7.60
56286;BMP180;42191;47.562;9.686;2023-03-17T03:53:55;96546.00;;;7.60
56286;BMP180;42191;47.562;9.686;2023-03-17T03:56:21;96544.00;;;7.50
56286;BMP180;42191;47.562;9.686;2023-03-17T03:58:47;96541.00;;;7.50
56286;BMP180;42191;47.562;9.686;2023-03-17T04:01:13;96543.00;;;7.50
56286;BMP180;42191;47.562;9.686;2023-03-17T04:03:40;96544.00;;;7.50
56286;BMP180;42191;47.562;9.686;2023-03-17T04:06:07;96555.00;;;7.50
56286;BMP180;42191;47.562;9.686;2023-03-17T04:08:33;96555.00;;;7.50
56286;BMP180;42191;47.562;9.686;2023-03-17T04:10:59;96554.00;;;7.50
56286;BMP180;42191;47.562;9.686;2023-03-17T04:13:25;96560.00;;;7.50
56286;BMP180;42191;47.562;9.686;2023-03-17T04:15:51;96562.00;;;7.50
56286;BMP180;42191;47.562;9.686;2023-03-17T04:18:18;96553.00;;;7.50
56286;BMP180;42191;47.562;9.686;2023-03-17T04:20:44;96554.00;;;7.50
56286;BMP180;42191;47.562;9.686;2023-03-17T04:23:10;96551.00;;;7.50
56286;BMP180;42191;47.562;9.686;2023-03-17T04:25:36;96554.00;;;7.50
56286;BMP180;42191;47.562;9.686;2023-03-17T04:28:03;96563.00;;;7.50
56286;BMP180;42191;47.562;9.686;2023-03-17T04:30:29;96561.00;;;7.50
56286;BMP180;42191;47.562;9.686;2023-03-17T04:32:56;96553.00;;;7.50
56286;BMP180;42191;47.562;9.686;2023-03-17T04:35:22;96565.00;;;7.50
56286;BMP180;42191;47.562;9.686;2023-03-17T04:37:49;96574.00;;;7.60
56286;BMP180;42191;47.562;9.686;2023-03-17T04:40:16;96572.00;;;7.60
56286;BMP180;42191;47.562;9.686;2023-03-17T04:42:43;96568.00;;;7.60
56286;BMP180;42191;47.562;9.686;2023-03-17T04:45:11;96557.00;;;7.60
56286;BMP180;42191;47.562;9.686;2023-03-17T04:47:38;96556.00;;;7.60
56286;BMP180;42191;47.562;9.686;2023-03-17T04:50:05;96560.00;;;7.60
56286;BMP180;42191;47.562;9.686;2023-03-17T04:52:34;96566.00;;;7.60
56286;BMP180;42191;47.562;9.686;2023-03-17T04:55:00;96560.00;;;7.60
56286;BMP180;42191;47.562;9.686;2023-03-17T04:57:26;96541.00;;;7.60
56286;BMP180;42191;47.562;9.686;2023-03-17T04:59:52;96545.00;;;7.60
56286;BMP180;42191;47.562;9.686;2023-03-17T05:02:18;96552.00;;;7.60
56286;BMP180;42191;47.562;9.686;2023-03-17T05:04:45;96536.00;;;7.60
56286;BMP180;42191;47.562;9.686;2023-03-17T05:07:14;96534.00;;;7.60
56286;BMP180;42191;47.562;9.686;2023-03-17T05:09:40;96534.00;;;7.60
56286;BMP180;42191;47.562;9.686;2023-03-17T05:12:07;96537.00;;;7.60
56286;BMP180;42191;47.562;9.686;2023-03-17T05:14:34;96536.00;;;7.50
56286;BMP180;42191;47.562;9.686;2023-03-17T05:17:00;96539.00;;;7.50
56286;BMP180;42191;47.562;9.686;2023-03-17T05:19:26;96530.00;;;7.50
56286;BMP180;42191;47.562;9.686;2023-03-17T05:21:53;96535.00;;;7.50
56286;BMP180;42191;47.562;9.686;2023-03-17T05:24:19;96527.00;;;7.50
56286;BMP180;42191;47.562;9.686;2023-03-17T05:26:45;96528.00;;;7.50
56286;BMP180;42191;47.562;9.686;2023-03-17T05:29:11;96534.00;;;7.40
56286;BMP180;42191;47.562;9.686;2023-03-17T05:31:37;96534.00;;;7.40
56286;BMP180;42191;47.562;9.686;2023-03-17T05:34:04;96530.00;;;7.40
56286;BMP180;42191;47.562;9.686;2023-03-17T05:36:30;96545.00;;;7.40
56286;BMP180;42191;47.562;9.686;2023-03-17T05:38:57;96531.00;;;7.40
56286;BMP180;42191;47.562;9.686;2023-03-17T05:41:23;96535.00;;;7.40
56286;BMP180;42191;47.562;9.686;2023-03-17T05:43:49;96525.00;;;7.40
56286;BMP180;42191;47.562;9.686;2023-03-17T05:46:16;96525.00;;;7.40
56286;BMP180;42191;47.562;9.686;2023-03-17T05:48:42;96528.00;;;7.40
56286;BMP180;42191;47.562;9.686;2023-03-17T05:51:08;96527.00;;;7.40
56286;BMP180;42191;47.562;9.686;2023-03-17T05:53:35;96518.00;;;7.40
56286;BMP180;42191;47.562;9.686;2023-03-17T05:56:02;96527.00;;;7.40
56286;BMP180;42191;47.562;9.686;2023-03-17T05:58:28;96524.00;;;7.40
56286;BMP180;42191;47.562;9.686;2023-03-17T06:00:55;96529.00;;;7.40
56286;BMP180;42191;47.562;9.686;2023-03-17T06:03:21;96528.00;;;7.40
56286;BMP180;42191;47.562;9.686;2023-03-17T06:05:48;96533.00;;;7.40
56286;BMP180;42191;47.562;9.686;2023-03-17T06:08:14;96529.00;;;7.40
56286;BMP180;42191;47.562;9.686;2023-03-17T06:10:40;96531.00;;;7.40
56286;BMP180;42191;47.562;9.686;2023-03-17T06:13:07;96542.00;;;7.40
56286;BMP180;42191;47.562;9.686;2023-03-17T06:15:33;96536.00;;;7.40
56286;BMP180;42191;47.562;9.686;2023-03-17T06:18:02;96546.00;;;7.40
56286;BMP180;42191;47.562;9.686;2023-03-17T06:20:30;96545.00;;;7.40
56286;BMP180;42191;47.562;9.686;2023-03-17T06:22:57;96552.00;;;7.40
56286;BMP180;42191;47.562;9.686;2023-03-17T06:25:23;96550.00;;;7.40
56286;BMP180;42191;47.562;9.686;2023-03-17T06:27:49;96557.00;;;7.30
56286;BMP180;42191;47.562;9.686;2023-03-17T06:30:19;96548.00;;;7.40
56286;BMP180;42191;47.562;9.686;2023-03-17T06:32:46;96546.00;;;7.40
56286;BMP180;42191;47.562;9.686;2023-03-17T06:35:13;96546.00;;;7.30
56286;BMP180;42191;47.562;9.686;2023-03-17T06:37:39;96551.00;;;7.30
56286;BMP180;42191;47.562;9.686;2023-03-17T06:40:06;96552.00;;;7.30
56286;BMP180;42191;47.562;9.686;2023-03-17T06:42:35;96550.00;;;7.40
56286;BMP180;42191;47.562;9.686;2023-03-17T06:45:01;96549.00;;;7.40
56286;BMP180;42191;47.562;9.686;2023-03-17T06:47:28;96551.00;;;7.40
56286;BMP180;42191;47.562;9.686;2023-03-17T06:49:54;96535.00;;;7.50
56286;BMP180;42191;47.562;9.686;2023-03-17T06:52:21;96535.00;;;7.50
56286;BMP180;42191;47.562;9.686;2023-03-17T06:54:47;96536.00;;;7.60
56286;BMP180;42191;47.562;9.686;2023-03-17T06:57:13;96545.00;;;7.60
56286;BMP180;42191;47.562;9.686;2023-03-17T06:59:39;96547.00;;;7.70
56286;BMP180;42191;47.562;9.686;2023-03-17T07:02:06;96546.00;;;7.70
56286;BMP180;42191;47.562;9.686;2023-03-17T07:04:32;96544.00;;;7.80
56286;BMP180;42191;47.562;9.686;2023-03-17T07:07:00;96547.00;;;7.80
56286;BMP180;42191;47.562;9.686;2023-03-17T07:09:26;96540.00;;;7.90
56286;BMP180;42191;47.562;9.686;2023-03-17T07:11:52;96547.00;;;8.00
56286;BMP180;42191;47.562;9.686;2023-03-17T07:14:18;96552.00;;;8.10
56286;BMP180;42191;47.562;9.686;2023-03-17T07:16:45;96541.00;;;8.10
56286;BMP180;42191;47.562;9.686;2023-03-17T07:19:12;96551.00;;;8.20
56286;BMP180;42191;47.562;9.686;2023-03-17T07:21:38;96553.00;;;8.30
56286;BMP180;42191;47.562;9.686;2023-03-17T07:24:04;96547.00;;;8.40
56286;BMP180;42191;47.562;9.686;2023-03-17T07:26:30;96533.00;;;8.60
56286;BMP180;42191;47.562;9.686;2023-03-17T07:28:56;96534.00;;;8.70
56286;BMP180;42191;47.562;9.686;2023-03-17T07:31:25;96529.00;;;8.80
56286;BMP180;42191;47.562;9.686;2023-03-17T07:33:51;96543.00;;;9.00
56286;BMP180;42191;47.562;9.686;2023-03-17T07:36:18;96539.00;;;9.20
56286;BMP180;42191;47.562;9.686;2023-03-17T07:38:44;96542.00;;;9.30
56286;BMP180;42191;47.562;9.686;2023-03-17T07:41:11;96534.00;;;9.50
56286;BMP180;42191;47.562;9.686;2023-03-17T07:43:38;96542.00;;;9.60
56286;BMP180;42191;47.562;9.686;2023-03-17T07:46:04;96529.00;;;9.80
56286;BMP180;42191;47.562;9.686;2023-03-17T07:48:30;96549.00;;;9.90
56286;BMP180;42191;47.562;9.686;2023-03-17T07:50:58;96539.00;;;10.00
56286;BMP180;42191;47.562;9.686;2023-03-17T07:53:25;96546.00;;;10.20
56286;BMP180;42191;47.562;9.686;2023-03-17T07:55:51;96550.00;;;10.30
56286;BMP180;42191;47.562;9.686;2023-03-17T07:58:17;96552.00;;;10.40
56286;BMP180;42191;47.562;9.686;2023-03-17T08:00:43;96561.00;;;10.50
56286;BMP180;42191;47.562;9.686;2023-03-17T08:03:09;96560.00;;;10.60
56286;BMP180;42191;47.562;9.686;2023-03-17T08:05:35;96560.00;;;10.60
56286;BMP180;42191;47.562;9.686;2023-03-17T08:08:01;96564.00;;;10.70
56286;BMP180;42191;47.562;9.686;2023-03-17T08:10:27;96557.00;;;10.80
56286;BMP180;42191;47.562;9.686;2023-03-17T08:12:54;96559.00;;;10.90
56286;BMP180;42191;47.562;9.686;2023-03-17T08:15:20;96548.00;;;11.00
56286;BMP180;42191;47.562;9.686;2023-03-17T08:17:46;96551.00;;;11.10
56286;BMP180;42191;47.562;9.686;2023-03-17T08:20:13;96543.00;;;11.20
56286;BMP180;42191;47.562;9.686;2023-03-17T08:22:40;96545.00;;;11.30
56286;BMP180;42191;47.562;9.686;2023-03-17T08:25:06;96546.00;;;11.40
56286;BMP180;42191;47.562;9.686;2023-03-17T08:27:34;96548.00;;;11.50
56286;BMP180;42191;47.562;9.686;2023-03-17T08:30:01;96551.00;;;11.50
56286;BMP180;42191;47.562;9.686;2023-03-17T08:32:27;96553.00;;;11.60
56286;BMP180;42191;47.562;9.686;2023-03-17T08:34:53;96548.00;;;11.60
56286;BMP180;42191;47.562;9.686;2023-03-17T08:37:20;96550.00;;;11.70
56286;BMP180;42191;47.562;9.686;2023-03-17T08:39:47;96545.00;;;11.80
56286;BMP180;42191;47.562;9.686;2023-03-17T08:42:13;96550.00;;;11.80
56286;BMP180;42191;47.562;9.686;2023-03-17T08:44:39;96549.00;;;12.00
56286;BMP180;42191;47.562;9.686;2023-03-17T08:47:06;96554.00;;;12.00
56286;BMP180;42191;47.562;9.686;2023-03-17T08:49:32;96552.00;;;12.10
56286;BMP180;42191;47.562;9.686;2023-03-17T08:52:01;96552.00;;;12.10
56286;BMP180;42191;47.562;9.686;2023-03-17T08:54:28;96544.00;;;12.10
56286;BMP180;42191;47.562;9.686;2023-03-17T08:56:54;96535.00;;;12.20
56286;BMP180;42191;47.562;9.686;2023-03-17T08:59:20;96531.00;;;12.20
56286;BMP180;42191;47.562;9.686;2023-03-17T09:01:46;96534.00;;;12.30
56286;BMP180;42191;47.562;9.686;2023-03-17T09:04:12;96535.00;;;12.40
56286;BMP180;42191;47.562;9.686;2023-03-17T09:06:39;96543.00;;;12.40
56286;BMP180;42191;47.562;9.686;2023-03-17T09:09:06;96541.00;;;12.50
56286;BMP180;42191;47.562;9.686;2023-03-17T09:11:33;96544.00;;;12.50
56286;BMP180;42191;47.562;9.686;2023-03-17T09:13:59;96521.00;;;12.60
56286;BMP180;42191;47.562;9.686;2023-03-17T09:16:26;96531.00;;;12.70
56286;BMP180;42191;47.562;9.686;2023-03-17T09:18:53;96536.00;;;12.80
56286;BMP180;42191;47.562;9.686;2023-03-17T09:21:20;96527.00;;;12.90
56286;BMP180;42191;47.562;9.686;2023-03-17T09:23:46;96525.00;;;13.00
56286;BMP180;42191;47.562;9.686;2023-03-17T09:26:12;96529.00;;;13.10
56286;BMP180;42191;47.562;9.686;2023-03-17T09:28:38;96527.00;;;13.20
56286;BMP180;42191;47.562;9.686;2023-03-17T09:31:05;96521.00;;;13.30
56286;BMP180;42191;47.562;9.686;2023-03-17T09:33:37;96517.00;;;13.40
56286;BMP180;42191;47.562;9.686;2023-03-17T09:36:03;96503.00;;;13.50
56286;BMP180;42191;47.562;9.686;2023-03-17T09:38:29;96512.00;;;13.70
56286;BMP180;42191;47.562;9.686;2023-03-17T09:41:04;96514.00;;;13.90
56286;BMP180;42191;47.562;9.686;2023-03-17T09:49:51;96508.00;;;14.30
56286;BMP180;42191;47.562;9.686;2023-03-17T09:52:26;96497.00;;;14.40
56286;BMP180;42191;47.562;9.686;2023-03-17T09:54:53;96498.00;;;14.60
56286;BMP180;42191;47.562;9.686;2023-03-17T09:57:36;96490.00;;;14.70
56286;BMP180;42191;47.562;9.686;2023-03-17T10:00:22;96493.00;;;14.80
56286;BMP180;42191;47.562;9.686;2023-03-17T10:02:54;96492.00;;;14.90
56286;BMP180;42191;47.562;9.686;2023-03-17T10:05:22;96494.00;;;14.90
56286;BMP180;42191;47.562;9.686;2023-03-17T10:10:48;96491.00;;;14.90
56286;BMP180;42191;47.562;9.686;2023-03-17T10:16:19;96492.00;;;14.90
56286;BMP180;42191;47.562;9.686;2023-03-17T10:18:55;96484.00;;;14.80
56286;BMP180;42191;47.562;9.686;2023-03-17T10:21:27;96477.00;;;14.80
56286;BMP180;42191;47.562;9.686;2023-03-17T10:23:55;96485.00;;;14.80
56286;BMP180;42191;47.562;9.686;2023-03-17T10:26:32;96471.00;;;14.80
56286;BMP180;42191;47.562;9.686;2023-03-17T10:29:01;96479.00;;;14.80
56286;BMP180;42191;47.562;9.686;2023-03-17T10:31:31;96468.00;;;14.90
56286;BMP180;42191;47.562;9.686;2023-03-17T10:34:03;96471.00;;;14.90
56286;BMP180;42191;47.562;9.686;2023-03-17T10:36:39;96467.00;;;14.90
56286;BMP180;42191;47.562;9.686;2023-03-17T10:39:08;96472.00;;;15.00
56286;BMP180;42191;47.562;9.686;2023-03-17T10:41:39;96471.00;;;15.10
56286;BMP180;42191;47.562;9.686;2023-03-17T10:44:14;96471.00;;;15.10
56286;BMP180;42191;47.562;9.686;2023-03-17T10:46:52;96467.00;;;15.20
56286;BMP180;42191;47.562;9.686;2023-03-17T10:49:19;96464.00;;;15.30
56286;BMP180;42191;47.562;9.686;2023-03-17T10:51:51;96460.00;;;15.30
56286;BMP180;42191;47.562;9.686;2023-03-17T10:54:22;96458.00;;;15.40
56286;BMP180;42191;47.562;9.686;2023-03-17T10:57:01;96466.00;;;15.60
56286;BMP180;42191;47.562;9.686;2023-03-17T10:59:31;96469.00;;;15.70
56286;BMP180;42191;47.562;9.686;2023-03-17T11:04:45;96472.00;;;15.90
56286;BMP180;42191;47.562;9.686;2023-03-17T11:07:33;96458.00;;;16.00
56286;BMP180;42191;47.562;9.686;2023-03-17T11:10:02;96465.00;;;16.10
56286;BMP180;42191;47.562;9.686;2023-03-17T11:12:34;96461.00;;;16.20
56286;BMP180;42191;47.562;9.686;2023-03-17T11:15:21;96469.00;;;16.30
56286;BMP180;42191;47.562;9.686;2023-03-17T11:17:57;96457.00;;;16.30
56286;BMP180;42191;47.562;9.686;2023-03-17T11:25:28;96443.00;;;16.60
56286;BMP180;42191;47.562;9.686;2023-03-17T11:33:24;96429.00;;;17.00
56286;BMP180;42191;47.562;9.686;2023-03-17T11:39:04;96425.00;;;17.30
56286;BMP180;42191;47.562;9.686;2023-03-17T11:41:44;96420.00;;;17.50
56286;BMP180;42191;47.562;9.686;2023-03-17T11:44:27;96433.00;;;17.60
56286;BMP180;42191;47.562;9.686;2023-03-17T11:49:38;96440.00;;;17.70
56286;BMP180;42191;47.562;9.686;2023-03-17T11:52:43;96433.00;;;17.80
56286;BMP180;42191;47.562;9.686;2023-03-17T11:55:24;96424.00;;;17.80
56286;BMP180;42191;47.562;9.686;2023-03-17T11:57:56;96413.00;;;17.90
56286;BMP180;42191;47.562;9.686;2023-03-17T12:00:31;96426.00;;;18.00
56286;BMP180;42191;47.562;9.686;2023-03-17T12:05:55;96398.00;;;18.30
56286;BMP180;42191;47.562;9.686;2023-03-17T12:08:30;96391.00;;;18.40
56286;BMP180;42191;47.562;9.686;2023-03-17T12:11:04;96393.00;;;18.60
56286;BMP180;42191;47.562;9.686;2023-03-17T12:13:45;96389.00;;;18.70
56286;BMP180;42191;47.562;9.686;2023-03-17T12:16:29;96378.00;;;18.80
56286;BMP180;42191;47.562;9.686;2023-03-17T12:19:24;96384.00;;;18.90
56286;BMP180;42191;47.562;9.686;2023-03-17T12:21:54;96389.00;;;19.00
56286;BMP180;42191;47.562;9.686;2023-03-17T12:24:41;96384.00;;;19.10
56286;BMP180;42191;47.562;9.686;2023-03-17T12:27:23;96385.00;;;19.10
56286;BMP180;42191;47.562;9.686;2023-03-17T12:29:58;96381.00;;;19.10
56286;BMP180;42191;47.562;9.686;2023-03-17T12:32:28;96377.00;;;19.10
56286;BMP180;42191;47.562;9.686;2023-03-17T12:35:07;96377.00;;;19.20
56286;BMP180;42191;47.562;9.686;2023-03-17T12:37:36;96370.00;;;19.30
56286;BMP180;42191;47.562;9.686;2023-03-17T12:40:09;96373.00;;;19.40
56286;BMP180;42191;47.562;9.686;2023-03-17T12:42:50;96367.00;;;19.50
56286;BMP180;42191;47.562;9.686;2023-03-17T12:54:02;96352.00;;;19.90
56286;BMP180;42191;47.562;9.686;2023-03-17T12:56:33;96351.00;;;19.90
56286;BMP180;42191;47.562;9.686;2023-03-17T12:59:04;96353.00;;;20.00
56286;BMP180;42191;47.562;9.686;2023-03-17T13:01:32;96359.00;;;20.00
56286;BMP180;42191;47.562;9.686;2023-03-17T13:04:24;96345.00;;;20.00
56286;BMP180;42191;47.562;9.686;2023-03-17T13:10:10;96347.00;;;19.90
56286;BMP180;42191;47.562;9.686;2023-03-17T13:17:47;96350.00;;;19.80
56286;BMP180;42191;47.562;9.686;2023-03-17T13:20:16;96356.00;;;19.80
56286;BMP180;42191;47.562;9.686;2023-03-17T13:25:49;96347.00;;;19.50
56286;BMP180;42191;47.562;9.686;2023-03-17T13:28:41;96340.00;;;19.50
56286;BMP180;42191;47.562;9.686;2023-03-17T13:34:18;96344.00;;;19.30
56286;BMP180;42191;47.562;9.686;2023-03-17T13:37:21;96337.00;;;19.20
56286;BMP180;42191;47.562;9.686;2023-03-17T13:43:06;96340.00;;;19.30
56286;BMP180;42191;47.562;9.686;2023-03-17T13:45:42;96327.00;;;19.50
56286;BMP180;42191;47.562;9.686;2023-03-17T13:51:20;96331.00;;;20.20
56286;BMP180;42191;47.562;9.686;2023-03-17T13:56:52;96336.00;;;20.90
56286;BMP180;42191;47.562;9.686;2023-03-17T14:02:17;96339.00;;;21.40
56286;BMP180;42191;47.562;9.686;2023-03-17T14:05:02;96337.00;;;21.60
56286;BMP180;42191;47.562;9.686;2023-03-17T14:07:36;96334.00;;;21.70
56286;BMP180;42191;47.562;9.686;2023-03-17T14:10:04;96333.00;;;21.80
56286;BMP180;42191;47.562;9.686;2023-03-17T14:12:33;96342.00;;;21.80
56286;BMP180;42191;47.562;9.686;2023-03-17T14:15:16;96337.00;;;21.70
56286;BMP180;42191;47.562;9.686;2023-03-17T14:17:52;96343.00;;;21.60
56286;BMP180;42191;47.562;9.686;2023-03-17T14:20:25;96351.00;;;21.50
56286;BMP180;42191;47.562;9.686;2023-03-17T14:23:00;96337.00;;;21.60
56286;BMP180;42191;47.562;9.686;2023-03-17T14:25:31;96341.00;;;21.70
56286;BMP180;42191;47.562;9.686;2023-03-17T14:27:58;96337.00;;;22.00
56286;BMP180;42191;47.562;9.686;2023-03-17T14:30:27;96337.00;;;22.30
56286;BMP180;42191;47.562;9.686;2023-03-17T14:33:11;96339.00;;;22.60
56286;BMP180;42191;47.562;9.686;2023-03-17T14:35:41;96341.00;;;22.80
56286;BMP180;42191;47.562;9.686;2023-03-17T14:38:24;96340.00;;;22.90
56286;BMP180;42191;47.562;9.686;2023-03-17T14:41:00;96340.00;;;23.00
56286;BMP180;42191;47.562;9.686;2023-03-17T14:43:26;96335.00;;;23.10
56286;BMP180;42191;47.562;9.686;2023-03-17T14:48:37;96344.00;;;23.20
56286;BMP180;42191;47.562;9.686;2023-03-17T14:53:47;96342.00;;;23.30
56286;BMP180;42191;47.562;9.686;2023-03-17T14:56:21;96338.00;;;23.40
56286;BMP180;42191;47.562;9.686;2023-03-17T14:58:50;96344.00;;;23.60
56286;BMP180;42191;47.562;9.686;2023-03-17T15:01:31;96339.00;;;23.90
56286;BMP180;42191;47.562;9.686;2023-03-17T15:04:13;96346.00;;;24.10
56286;BMP180;42191;47.562;9.686;2023-03-17T15:06:56;96333.00;;;24.30
56286;BMP180;42191;47.562;9.686;2023-03-17T15:09:35;96332.00;;;24.40
56286;BMP180;42191;47.562;9.686;2023-03-17T15:12:16;96335.00;;;24.50
56286;BMP180;42191;47.562;9.686;2023-03-17T15:14:44;96332.00;;;24.50
56286;BMP180;42191;47.562;9.686;2023-03-17T15:17:25;96333.00;;;24.60
56286;BMP180;42191;47.562;9.686;2023-03-17T15:19:54;96335.00;;;24.70
56286;BMP180;42191;47.562;9.686;2023-03-17T15:22:30;96343.00;;;24.90
56286;BMP180;42191;47.562;9.686;2023-03-17T15:27:30;96337.00;;;25.10
56286;BMP180;42191;47.562;9.686;2023-03-17T15:29:57;96342.00;;;25.30
56286;BMP180;42191;47.562;9.686;2023-03-17T15:32:25;96341.00;;;25.40
56286;BMP180;42191;47.562;9.686;2023-03-17T15:34:54;96345.00;;;25.40
56286;BMP180;42191;47.562;9.686;2023-03-17T15:37:26;96335.00;;;25.30
56286;BMP180;42191;47.562;9.686;2023-03-17T15:39:54;96340.00;;;25.30
56286;BMP180;42191;47.562;9.686;2023-03-17T15:42:29;96343.00;;;25.20
56286;BMP180;42191;47.562;9.686;2023-03-17T15:44:56;96342.00;;;25.20
56286;BMP180;42191;47.562;9.686;2023-03-17T15:47:27;96346.00;;;25.20
56286;BMP180;42191;47.562;9.686;2023-03-17T15:49:57;96343.00;;;25.40
56286;BMP180;42191;47.562;9.686;2023-03-17T15:52:25;96343.00;;;25.70